Time;durP1;ratioP1;P1;durP2;ratioP2;P2;SDS_P1;SDS_P2;PMS_P1;PMS_P2;Temp;Humidity;BMP_temperature;BMP_pressure;BME280_temperature;BME280_humidity;BME280_pressure;Samples;Min_cycle;Max_cycle;Signal;HPM_P1;HPM_P2
2022/07/22 00:00:51;;;;;;;18.13;11.05;;;;;;;;;;5124946;28;20190;-72
2022/07/22 00:03:16;;;;;;;21.02;11.18;;;;;;;;;;5124783;28;20038;-72
2022/07/22 00:05:42;;;;;;;21.60;11.32;;;;;;;;;;5118159;28;20220;-73
2022/07/22 00:08:07;;;;;;;20.10;10.82;;;;;;;;;;5124550;28;20026;-72
2022/07/22 00:10:33;;;;;;;20.25;11.43;;;;;;;;;;5124618;28;20027;-72
2022/07/22 00:12:58;;;;;;;18.70;11.07;;;;;;;;;;5124688;28;20102;-72
2022/07/22 00:15:23;;;;;;;16.38;11.32;;;;;;;;;;5124753;28;20039;-72
2022/07/22 00:17:49;;;;;;;16.67;11.15;;;;;;;;;;5122883;28;20335;-72
2022/07/22 00:20:14;;;;;;;20.15;11.27;;;;;;;;;;5120223;28;20081;-72
2022/07/22 00:22:40;;;;;;;19.17;11.02;;;;;;;;;;5124089;28;20027;-73
2022/07/22 00:25:05;;;;;;;23.05;10.85;;;;;;;;;;5124265;28;20039;-73
2022/07/22 00:27:31;;;;;;;20.05;11.32;;;;;;;;;;5124479;28;20020;-72
2022/07/22 00:29:56;;;;;;;16.38;10.70;;;;;;;;;;5124278;28;20027;-73
2022/07/22 00:32:22;;;;;;;17.25;10.98;;;;;;;;;;5124366;28;20024;-72
2022/07/22 00:34:47;;;;;;;18.35;11.00;;;;;;;;;;5124346;28;20247;-72
2022/07/22 00:37:13;;;;;;;19.15;11.57;;;;;;;;;;5124906;28;20034;-73
2022/07/22 00:39:38;;;;;;;18.50;10.68;;;;;;;;;;5124104;28;20026;-72
2022/07/22 00:42:03;;;;;;;16.95;10.60;;;;;;;;;;5124076;28;20061;-72
2022/07/22 00:44:29;;;;;;;19.67;11.05;;;;;;;;;;5117414;28;20016;-73
2022/07/22 00:46:54;;;;;;;18.60;10.63;;;;;;;;;;5122651;28;20024;-73
2022/07/22 00:49:19;;;;;;;18.83;10.43;;;;;;;;;;5123698;28;20044;-72
2022/07/22 00:51:46;;;;;;;17.23;10.48;;;;;;;;;;5124058;28;20058;-72
2022/07/22 00:54:11;;;;;;;18.35;10.02;;;;;;;;;;5123322;28;20072;-72
2022/07/22 00:56:38;;;;;;;19.25;10.75;;;;;;;;;;5123879;28;20314;-73
2022/07/22 00:59:06;;;;;;;18.65;10.27;;;;;;;;;;5123464;28;20028;-73
2022/07/22 01:01:32;;;;;;;18.58;11.05;;;;;;;;;;5105330;28;20238;-72
2022/07/22 01:03:57;;;;;;;20.70;11.25;;;;;;;;;;5123534;28;20039;-72
2022/07/22 01:06:23;;;;;;;15.55;10.35;;;;;;;;;;5117387;28;20095;-73
2022/07/22 01:08:48;;;;;;;17.52;10.63;;;;;;;;;;5123301;28;20028;-72
2022/07/22 01:11:17;;;;;;;15.75;10.43;;;;;;;;;;5123868;28;20019;-72
2022/07/22 01:13:43;;;;;;;17.45;10.32;;;;;;;;;;5121895;28;20015;-73
2022/07/22 01:16:10;;;;;;;20.17;10.85;;;;;;;;;;5123203;28;20320;-72
2022/07/22 01:18:36;;;;;;;17.35;10.68;;;;;;;;;;5123306;28;20031;-72
2022/07/22 01:21:02;;;;;;;20.08;10.60;;;;;;;;;;5123231;28;20083;-72
2022/07/22 01:23:28;;;;;;;17.40;10.98;;;;;;;;;;5123458;28;20214;-72
2022/07/22 01:25:54;;;;;;;17.85;10.52;;;;;;;;;;5123314;28;20020;-73
2022/07/22 01:28:20;;;;;;;19.50;11.02;;;;;;;;;;5123290;28;20069;-73
2022/07/22 01:30:45;;;;;;;17.67;10.48;;;;;;;;;;5123272;28;20042;-72
2022/07/22 01:33:11;;;;;;;17.52;10.88;;;;;;;;;;5123060;28;20222;-73
2022/07/22 01:35:36;;;;;;;18.83;10.15;;;;;;;;;;5122943;28;20020;-73
2022/07/22 01:38:02;;;;;;;19.42;10.85;;;;;;;;;;5122754;28;20016;-73
2022/07/22 01:40:27;;;;;;;18.95;10.93;;;;;;;;;;5122881;28;20019;-72
2022/07/22 01:42:52;;;;;;;18.65;10.68;;;;;;;;;;5123141;28;20393;-73
2022/07/22 01:45:18;;;;;;;16.30;10.38;;;;;;;;;;5123095;28;20020;-73
2022/07/22 01:47:43;;;;;;;17.92;10.65;;;;;;;;;;5122948;28;20034;-72
2022/07/22 01:50:11;;;;;;;17.00;10.32;;;;;;;;;;5122500;28;20042;-72
2022/07/22 01:52:37;;;;;;;23.83;11.10;;;;;;;;;;5122378;28;20073;-72
2022/07/22 01:55:05;;;;;;;18.50;10.85;;;;;;;;;;5122592;28;20038;-72
2022/07/22 01:57:30;;;;;;;20.33;10.82;;;;;;;;;;5122692;28;20023;-72
2022/07/22 01:59:55;;;;;;;16.50;10.60;;;;;;;;;;5122117;28;20031;-72
2022/07/22 02:02:21;;;;;;;19.92;10.55;;;;;;;;;;5122591;28;20261;-73
2022/07/22 02:04:46;;;;;;;20.33;11.00;;;;;;;;;;5119767;28;20509;-72
2022/07/22 02:07:12;;;;;;;15.85;10.25;;;;;;;;;;5108127;28;20098;-72
2022/07/22 02:09:37;;;;;;;17.50;10.70;;;;;;;;;;5121920;28;20030;-72
2022/07/22 02:12:02;;;;;;;19.60;10.70;;;;;;;;;;5122444;28;20023;-75
2022/07/22 02:14:28;;;;;;;18.15;10.40;;;;;;;;;;5122270;28;20024;-72
2022/07/22 02:16:53;;;;;;;19.85;10.63;;;;;;;;;;5122264;28;20189;-73
2022/07/22 02:19:19;;;;;;;18.23;10.82;;;;;;;;;;5121770;28;20330;-72
2022/07/22 02:21:44;;;;;;;17.98;10.02;;;;;;;;;;5122646;28;20038;-72
2022/07/22 02:24:09;;;;;;;16.15;10.13;;;;;;;;;;5122070;28;20083;-72
2022/07/22 02:26:35;;;;;;;17.65;11.18;;;;;;;;;;5121786;28;20406;-72
2022/07/22 02:29:00;;;;;;;17.85;10.50;;;;;;;;;;5103819;28;20016;-72
2022/07/22 02:31:26;;;;;;;18.63;9.77;;;;;;;;;;5122033;28;20342;-72
2022/07/22 02:33:51;;;;;;;17.73;10.32;;;;;;;;;;5121900;28;20031;-72
2022/07/22 02:36:17;;;;;;;18.88;10.23;;;;;;;;;;5121793;28;20185;-73
2022/07/22 02:38:43;;;;;;;17.73;10.32;;;;;;;;;;5121695;28;20023;-72
2022/07/22 02:41:08;;;;;;;18.88;10.63;;;;;;;;;;5121814;28;20030;-72
2022/07/22 02:43:33;;;;;;;18.17;10.43;;;;;;;;;;5092434;28;20012;-73
2022/07/22 02:45:59;;;;;;;18.05;10.15;;;;;;;;;;5118897;28;20038;-72
2022/07/22 02:48:24;;;;;;;16.65;10.57;;;;;;;;;;5121492;28;20200;-72
2022/07/22 02:50:50;;;;;;;22.02;10.40;;;;;;;;;;5121680;28;20258;-72
2022/07/22 02:53:15;;;;;;;17.73;10.30;;;;;;;;;;5121603;28;20039;-72
2022/07/22 02:55:40;;;;;;;19.75;10.45;;;;;;;;;;5121465;28;20208;-72
2022/07/22 02:58:07;;;;;;;17.55;9.68;;;;;;;;;;5121849;28;20161;-73
2022/07/22 03:00:34;;;;;;;16.80;10.38;;;;;;;;;;5121416;28;20235;-72
2022/07/22 03:02:59;;;;;;;17.52;9.60;;;;;;;;;;5122078;28;20127;-72
2022/07/22 03:05:25;;;;;;;16.13;9.25;;;;;;;;;;5115022;28;20024;-72
2022/07/22 03:07:50;;;;;;;16.50;9.73;;;;;;;;;;5121441;28;20085;-72
2022/07/22 03:10:15;;;;;;;19.45;10.23;;;;;;;;;;5121035;28;20292;-73
2022/07/22 03:12:41;;;;;;;18.30;10.15;;;;;;;;;;5121627;28;20020;-72
2022/07/22 03:15:06;;;;;;;13.38;9.25;;;;;;;;;;5121253;28;20223;-72
2022/07/22 03:17:36;;;;;;;16.25;8.93;;;;;;;;;;5121251;28;20115;-72
2022/07/22 03:20:09;;;;;;;15.43;9.50;;;;;;;;;;5114736;28;20061;-73
2022/07/22 03:22:35;;;;;;;16.20;10.02;;;;;;;;;;5115013;28;20307;-73
2022/07/22 03:25:00;;;;;;;16.05;9.77;;;;;;;;;;5120707;28;20059;-73
2022/07/22 03:27:26;;;;;;;17.95;10.15;;;;;;;;;;5114618;28;20035;-73
2022/07/22 03:29:51;;;;;;;14.90;9.10;;;;;;;;;;5121103;28;20024;-72
2022/07/22 03:32:17;;;;;;;19.42;9.32;;;;;;;;;;5121232;28;20034;-73
2022/07/22 03:34:43;;;;;;;16.13;9.02;;;;;;;;;;5121074;28;20051;-73
2022/07/22 03:37:08;;;;;;;21.77;9.60;;;;;;;;;;5121000;28;20222;-72
2022/07/22 03:39:34;;;;;;;17.50;9.60;;;;;;;;;;5120923;28;20031;-73
2022/07/22 03:41:59;;;;;;;16.73;9.30;;;;;;;;;;5121250;28;20272;-73
2022/07/22 03:44:25;;;;;;;18.02;9.57;;;;;;;;;;5121453;28;20028;-72
2022/07/22 03:46:50;;;;;;;17.30;9.63;;;;;;;;;;5114379;28;20303;-73
2022/07/22 03:49:15;;;;;;;16.90;9.80;;;;;;;;;;5120726;28;20176;-73
2022/07/22 03:51:41;;;;;;;16.42;9.27;;;;;;;;;;5121146;28;20024;-73
2022/07/22 03:54:06;;;;;;;14.45;9.52;;;;;;;;;;5120683;28;20178;-73
2022/07/22 03:56:32;;;;;;;18.35;9.32;;;;;;;;;;5120723;28;20359;-72
2022/07/22 03:58:57;;;;;;;19.00;9.23;;;;;;;;;;5121188;28;20084;-78
2022/07/22 04:01:22;;;;;;;18.52;9.55;;;;;;;;;;5120841;28;20027;-74
2022/07/22 04:03:48;;;;;;;15.93;9.00;;;;;;;;;;5121064;28;20038;-72
2022/07/22 04:06:14;;;;;;;16.27;9.38;;;;;;;;;;5114386;28;20283;-73
2022/07/22 04:08:40;;;;;;;17.45;9.20;;;;;;;;;;5120592;28;20053;-72
2022/07/22 04:11:05;;;;;;;17.42;9.38;;;;;;;;;;5120828;28;20036;-73
2022/07/22 04:13:31;;;;;;;17.45;8.65;;;;;;;;;;5120549;28;20027;-73
2022/07/22 04:15:56;;;;;;;15.27;8.73;;;;;;;;;;5115705;28;20023;-72
2022/07/22 04:18:22;;;;;;;16.70;8.98;;;;;;;;;;5120803;28;20028;-73
2022/07/22 04:20:47;;;;;;;15.73;9.02;;;;;;;;;;5116047;28;20292;-73
2022/07/22 04:23:13;;;;;;;17.25;8.75;;;;;;;;;;5124439;28;20019;-73
2022/07/22 04:25:38;;;;;;;17.23;9.00;;;;;;;;;;5124857;28;20359;-73
2022/07/22 04:28:04;;;;;;;14.25;8.38;;;;;;;;;;5124760;28;20027;-72
2022/07/22 04:30:29;;;;;;;14.10;8.75;;;;;;;;;;5124201;28;20038;-73
2022/07/22 04:32:54;;;;;;;16.25;8.98;;;;;;;;;;5124196;28;20020;-73
2022/07/22 04:35:20;;;;;;;15.32;8.65;;;;;;;;;;5124423;28;20047;-73
2022/07/22 04:37:45;;;;;;;19.80;9.40;;;;;;;;;;5124186;28;20144;-73
2022/07/22 04:40:11;;;;;;;15.65;8.88;;;;;;;;;;5123852;28;20031;-72
2022/07/22 04:42:36;;;;;;;15.57;8.88;;;;;;;;;;5124037;28;20028;-72
2022/07/22 04:45:03;;;;;;;20.10;8.82;;;;;;;;;;5123498;28;20088;-72
2022/07/22 04:47:28;;;;;;;16.45;8.82;;;;;;;;;;5123990;28;20027;-73
2022/07/22 04:49:54;;;;;;;24.13;8.98;;;;;;;;;;5101888;28;20059;-73
2022/07/22 04:52:19;;;;;;;24.30;8.63;;;;;;;;;;5103455;28;20031;-72
2022/07/22 04:54:44;;;;;;;17.65;9.10;;;;;;;;;;5103460;28;20032;-73
2022/07/22 04:57:10;;;;;;;17.80;8.57;;;;;;;;;;5103528;28;20035;-72
2022/07/22 04:59:35;;;;;;;14.00;8.80;;;;;;;;;;5102842;28;20020;-72
2022/07/22 05:02:01;;;;;;;16.38;8.85;;;;;;;;;;5103221;28;20368;-73
2022/07/22 05:04:26;;;;;;;15.05;9.32;;;;;;;;;;5103027;28;20074;-73
2022/07/22 05:06:52;;;;;;;15.98;8.63;;;;;;;;;;5096729;28;20083;-72
2022/07/22 05:09:17;;;;;;;19.23;9.13;;;;;;;;;;5102773;28;20036;-72
2022/07/22 05:11:42;;;;;;;17.95;8.88;;;;;;;;;;5103156;28;20012;-73
2022/07/22 05:14:08;;;;;;;16.83;8.55;;;;;;;;;;5103079;28;20086;-72
2022/07/22 05:16:38;;;;;;;15.80;8.57;;;;;;;;;;5103448;28;20052;-74
2022/07/22 05:19:05;;;;;;;13.43;8.40;;;;;;;;;;5102647;28;20032;-73
2022/07/22 05:21:30;;;;;;;15.05;8.80;;;;;;;;;;5098686;28;20012;-72
2022/07/22 05:23:55;;;;;;;16.67;9.10;;;;;;;;;;5100791;28;20428;-72
2022/07/22 05:26:21;;;;;;;16.67;8.93;;;;;;;;;;5102680;28;20044;-72
2022/07/22 05:28:46;;;;;;;15.50;8.25;;;;;;;;;;5102785;28;20065;-73
2022/07/22 05:31:12;;;;;;;12.73;8.07;;;;;;;;;;5102846;28;20016;-73
2022/07/22 05:33:37;;;;;;;15.95;8.20;;;;;;;;;;5102183;28;20051;-73
2022/07/22 05:36:03;;;;;;;19.50;8.98;;;;;;;;;;5102567;28;20065;-74
2022/07/22 05:38:28;;;;;;;17.63;8.13;;;;;;;;;;5102019;28;20027;-72
2022/07/22 05:40:53;;;;;;;18.80;8.52;;;;;;;;;;5102536;28;20056;-73
2022/07/22 05:43:19;;;;;;;19.17;8.40;;;;;;;;;;5102107;28;20024;-72
2022/07/22 05:45:44;;;;;;;16.50;8.55;;;;;;;;;;5095923;28;20027;-72
2022/07/22 05:48:09;;;;;;;17.45;8.23;;;;;;;;;;5105010;28;20071;-74
2022/07/22 05:50:35;;;;;;;16.10;8.13;;;;;;;;;;5122418;28;20098;-73
2022/07/22 05:53:01;;;;;;;18.42;8.38;;;;;;;;;;5104250;28;20020;-72
2022/07/22 05:55:26;;;;;;;15.13;7.93;;;;;;;;;;5122367;28;20019;-72
2022/07/22 05:57:51;;;;;;;16.17;7.80;;;;;;;;;;5122214;28;20019;-72
2022/07/22 06:00:17;;;;;;;18.60;8.00;;;;;;;;;;5122231;28;20027;-72
2022/07/22 06:02:42;;;;;;;18.10;8.23;;;;;;;;;;5122451;28;20015;-73
2022/07/22 06:05:08;;;;;;;17.95;8.05;;;;;;;;;;5117272;28;20178;-73
2022/07/22 06:07:33;;;;;;;16.33;8.30;;;;;;;;;;5120577;28;20028;-72
2022/07/22 06:09:58;;;;;;;17.88;7.75;;;;;;;;;;5122237;28;20034;-73
2022/07/22 06:12:24;;;;;;;13.40;8.23;;;;;;;;;;5122056;28;20028;-73
2022/07/22 06:14:49;;;;;;;14.88;7.57;;;;;;;;;;5122087;28;20031;-72
2022/07/22 06:17:14;;;;;;;17.00;7.93;;;;;;;;;;5122218;28;20074;-74
2022/07/22 06:19:40;;;;;;;12.93;7.53;;;;;;;;;;5121770;28;20192;-72
2022/07/22 06:22:05;;;;;;;12.10;7.72;;;;;;;;;;5121868;28;20262;-73
2022/07/22 06:24:31;;;;;;;26.45;8.82;;;;;;;;;;5121912;28;20024;-72
2022/07/22 06:26:56;;;;;;;18.85;8.50;;;;;;;;;;5103552;28;20073;-72
2022/07/22 06:29:22;;;;;;;13.30;7.68;;;;;;;;;;5121734;28;20092;-73
2022/07/22 06:31:47;;;;;;;16.52;8.10;;;;;;;;;;5121992;28;20335;-72
2022/07/22 06:34:13;;;;;;;17.30;7.40;;;;;;;;;;5121612;28;20177;-72
2022/07/22 06:36:38;;;;;;;15.68;7.90;;;;;;;;;;5121941;28;20019;-72
2022/07/22 06:39:03;;;;;;;14.43;7.40;;;;;;;;;;5121513;28;20019;-73
2022/07/22 06:41:29;;;;;;;17.70;8.13;;;;;;;;;;5121748;28;20088;-72
2022/07/22 06:43:54;;;;;;;17.63;7.63;;;;;;;;;;5121008;28;20027;-72
2022/07/22 06:46:19;;;;;;;18.80;7.28;;;;;;;;;;5121524;28;20028;-73
2022/07/22 06:48:45;;;;;;;16.33;7.80;;;;;;;;;;5121061;28;20039;-73
2022/07/22 06:51:10;;;;;;;16.10;7.47;;;;;;;;;;5121917;28;20060;-72
2022/07/22 06:53:36;;;;;;;16.10;7.78;;;;;;;;;;5121157;28;20228;-73
2022/07/22 06:56:01;;;;;;;13.63;7.70;;;;;;;;;;5121646;28;20020;-72
2022/07/22 06:58:26;;;;;;;15.75;7.75;;;;;;;;;;5121151;28;20034;-72
2022/07/22 07:00:52;;;;;;;13.75;7.38;;;;;;;;;;5121449;28;20363;-73
2022/07/22 07:03:17;;;;;;;15.32;7.03;;;;;;;;;;5121333;28;20027;-72
2022/07/22 07:05:43;;;;;;;15.23;7.60;;;;;;;;;;5114446;28;20035;-72
2022/07/22 07:08:08;;;;;;;15.07;7.18;;;;;;;;;;5121216;28;20123;-72
2022/07/22 07:10:34;;;;;;;21.58;8.30;;;;;;;;;;5121156;28;20192;-73
2022/07/22 07:13:00;;;;;;;15.93;7.93;;;;;;;;;;5103003;28;20024;-73
2022/07/22 07:15:26;;;;;;;16.83;7.53;;;;;;;;;;5121495;28;20031;-73
2022/07/22 07:17:53;;;;;;;16.70;8.02;;;;;;;;;;5121104;28;20315;-73
2022/07/22 07:20:19;;;;;;;13.60;7.80;;;;;;;;;;5121052;28;20031;-73
2022/07/22 07:22:44;;;;;;;16.70;7.43;;;;;;;;;;5114367;28;20023;-73
2022/07/22 07:25:10;;;;;;;16.45;7.55;;;;;;;;;;5120857;28;20206;-72
2022/07/22 07:27:36;;;;;;;15.70;7.28;;;;;;;;;;5121157;28;20032;-72
2022/07/22 07:30:02;;;;;;;12.27;7.40;;;;;;;;;;5121210;28;20054;-72
2022/07/22 07:32:28;;;;;;;18.25;7.60;;;;;;;;;;5112499;28;20027;-73
2022/07/22 07:34:53;;;;;;;13.70;7.60;;;;;;;;;;5120800;28;20031;-72
2022/07/22 07:37:18;;;;;;;19.20;7.50;;;;;;;;;;5118422;28;20027;-72
2022/07/22 07:39:44;;;;;;;16.08;8.20;;;;;;;;;;5120682;28;20023;-72
2022/07/22 07:42:09;;;;;;;52.08;11.40;;;;;;;;;;5121255;28;20023;-73
2022/07/22 07:44:35;;;;;;;15.55;7.35;;;;;;;;;;5120772;28;20224;-73
2022/07/22 07:47:00;;;;;;;18.67;8.15;;;;;;;;;;5121237;28;20034;-72
2022/07/22 07:49:25;;;;;;;15.52;7.85;;;;;;;;;;5120819;28;20047;-75
2022/07/22 07:51:51;;;;;;;14.98;7.68;;;;;;;;;;5120763;28;20076;-73
2022/07/22 07:54:17;;;;;;;13.02;7.35;;;;;;;;;;5120629;28;20027;-72
2022/07/22 07:56:42;;;;;;;15.07;7.97;;;;;;;;;;5124289;28;20034;-73
2022/07/22 07:59:07;;;;;;;16.88;7.88;;;;;;;;;;5124938;28;20289;-74
2022/07/22 08:01:33;;;;;;;16.88;7.47;;;;;;;;;;5124849;28;20028;-73
2022/07/22 08:03:58;;;;;;;12.77;6.95;;;;;;;;;;5124974;28;20169;-72
2022/07/22 08:06:23;;;;;;;12.63;7.57;;;;;;;;;;5118448;28;20130;-72
2022/07/22 08:08:49;;;;;;;15.80;7.47;;;;;;;;;;5124703;28;20211;-72
2022/07/22 08:11:14;;;;;;;15.35;7.15;;;;;;;;;;5117799;28;20030;-72
2022/07/22 08:13:40;;;;;;;16.52;7.97;;;;;;;;;;5124784;28;20026;-72
2022/07/22 08:16:05;;;;;;;16.65;7.82;;;;;;;;;;5124559;28;20027;-72
2022/07/22 08:18:30;;;;;;;15.02;7.07;;;;;;;;;;5124822;28;20027;-72
2022/07/22 08:20:57;;;;;;;15.32;7.40;;;;;;;;;;5124881;28;20327;-73
2022/07/22 08:23:22;;;;;;;16.10;7.20;;;;;;;;;;5100100;28;20024;-72
2022/07/22 08:25:47;;;;;;;17.13;7.72;;;;;;;;;;5116974;28;20255;-73
2022/07/22 08:28:13;;;;;;;14.57;7.15;;;;;;;;;;5124549;28;20027;-72
2022/07/22 08:30:40;;;;;;;13.60;7.45;;;;;;;;;;5124065;28;20068;-72
2022/07/22 08:33:06;;;;;;;16.73;7.93;;;;;;;;;;5124034;28;20028;-72
2022/07/22 08:35:31;;;;;;;18.52;7.63;;;;;;;;;;5124213;28;20027;-72
2022/07/22 08:37:57;;;;;;;18.02;7.68;;;;;;;;;;5124293;28;20039;-72
2022/07/22 08:40:22;;;;;;;17.77;7.28;;;;;;;;;;5123808;28;20027;-72
2022/07/22 08:42:49;;;;;;;18.10;7.70;;;;;;;;;;5124223;28;20023;-72
2022/07/22 08:45:15;;;;;;;13.27;6.85;;;;;;;;;;5123833;28;20125;-72
2022/07/22 08:47:48;;;;;;;15.15;7.68;;;;;;;;;;5117319;28;20027;-73
2022/07/22 08:50:14;;;;;;;22.60;7.40;;;;;;;;;;5123436;28;20039;-73
2022/07/22 08:52:43;;;;;;;16.35;7.45;;;;;;;;;;5123652;28;20091;-73
2022/07/22 08:55:09;;;;;;;16.45;7.53;;;;;;;;;;5123583;28;20121;-72
2022/07/22 08:57:36;;;;;;;13.90;7.20;;;;;;;;;;5124014;28;20023;-73
2022/07/22 09:00:11;;;;;;;18.15;7.57;;;;;;;;;;5123855;28;20024;-72
2022/07/22 09:02:38;;;;;;;14.57;7.38;;;;;;;;;;5115603;28;20091;-73
2022/07/22 09:05:06;;;;;;;13.60;7.07;;;;;;;;;;5119424;28;20074;-72
2022/07/22 09:07:34;;;;;;;14.20;6.80;;;;;;;;;;5120268;28;20027;-73
2022/07/22 09:10:01;;;;;;;15.60;7.03;;;;;;;;;;5123198;28;20303;-72
2022/07/22 09:12:29;;;;;;;16.40;7.45;;;;;;;;;;5123620;28;20091;-73
2022/07/22 09:14:56;;;;;;;13.10;6.60;;;;;;;;;;5114797;28;20019;-73
2022/07/22 09:17:42;;;;;;;17.15;7.00;;;;;;;;;;5123461;28;20042;-74
2022/07/22 09:20:18;;;;;;;19.85;7.28;;;;;;;;;;5092316;28;20227;-73
2022/07/22 09:22:46;;;;;;;18.05;7.10;;;;;;;;;;5117857;28;20020;-73
2022/07/22 09:25:35;;;;;;;13.55;6.47;;;;;;;;;;5123084;28;20026;-73
2022/07/22 09:28:06;;;;;;;15.00;7.03;;;;;;;;;;5123247;28;20335;-74
2022/07/22 09:30:35;;;;;;;12.68;7.47;;;;;;;;;;5123237;28;20026;-73
2022/07/22 09:33:01;;;;;;;15.65;7.38;;;;;;;;;;5123307;28;20358;-73
2022/07/22 09:35:27;;;;;;;15.50;7.38;;;;;;;;;;5122904;28;20023;-76
2022/07/22 09:37:58;;;;;;;11.70;7.05;;;;;;;;;;5123106;28;20027;-73
2022/07/22 09:40:28;;;;;;;19.65;8.27;;;;;;;;;;5113532;28;20050;-73
2022/07/22 09:42:57;;;;;;;12.38;7.18;;;;;;;;;;5122895;28;20027;-73
2022/07/22 09:45:24;;;;;;;16.65;8.10;;;;;;;;;;5122609;28;20030;-72
2022/07/22 09:47:51;;;;;;;13.38;7.18;;;;;;;;;;5122991;28;20019;-74
2022/07/22 09:50:22;;;;;;;13.25;7.53;;;;;;;;;;5076819;28;20024;-73
2022/07/22 09:52:49;;;;;;;11.57;7.05;;;;;;;;;;5077124;28;20110;-73
2022/07/22 09:55:16;;;;;;;14.90;6.75;;;;;;;;;;5094932;28;20050;-73
2022/07/22 09:57:43;;;;;;;13.93;7.32;;;;;;;;;;5096600;28;20051;-72
2022/07/22 10:00:09;;;;;;;14.27;7.30;;;;;;;;;;5098148;28;20043;-73
2022/07/22 10:02:41;;;;;;;11.10;6.53;;;;;;;;;;5097322;28;20402;-73
2022/07/22 10:05:08;;;;;;;14.15;7.38;;;;;;;;;;5100198;28;20023;-73
2022/07/22 10:07:35;;;;;;;16.27;7.10;;;;;;;;;;5096017;28;20194;-73
2022/07/22 10:10:01;;;;;;;15.02;6.80;;;;;;;;;;5096412;28;20027;-77
2022/07/22 10:12:28;;;;;;;11.93;6.85;;;;;;;;;;5099104;28;20023;-74
2022/07/22 10:14:54;;;;;;;14.63;6.90;;;;;;;;;;5097345;28;20035;-73
2022/07/22 10:17:19;;;;;;;11.88;7.15;;;;;;;;;;5100479;28;20024;-77
2022/07/22 10:19:45;;;;;;;12.40;7.22;;;;;;;;;;5100080;28;20032;-76
2022/07/22 10:22:38;;;;;;;15.57;7.28;;;;;;;;;;5101779;28;20028;-73
2022/07/22 10:25:05;;;;;;;10.35;7.03;;;;;;;;;;5095604;28;20066;-73
2022/07/22 10:27:45;;;;;;;12.18;6.57;;;;;;;;;;5096486;28;20297;-73
2022/07/22 10:30:12;;;;;;;13.65;6.97;;;;;;;;;;5091626;28;20021;-73
2022/07/22 10:32:37;;;;;;;14.98;6.85;;;;;;;;;;5097519;28;20091;-73
2022/07/22 10:35:08;;;;;;;12.18;6.95;;;;;;;;;;5094375;28;20048;-73
2022/07/22 10:37:34;;;;;;;11.15;6.63;;;;;;;;;;5098907;28;20024;-77
2022/07/22 10:40:22;;;;;;;12.90;7.10;;;;;;;;;;5096914;28;20311;-73
2022/07/22 10:43:00;;;;;;;13.13;7.28;;;;;;;;;;5100245;28;20036;-73
2022/07/22 10:45:32;;;;;;;15.30;7.50;;;;;;;;;;5099929;28;20023;-73
2022/07/22 10:47:59;;;;;;;14.98;7.40;;;;;;;;;;5101539;28;20303;-73
2022/07/22 10:53:03;;;;;;;11.45;7.30;;;;;;;;;;5115645;28;20055;-73
2022/07/22 10:55:28;;;;;;;12.80;7.72;;;;;;;;;;5120699;28;20346;-73
2022/07/22 10:57:54;;;;;;;13.35;7.68;;;;;;;;;;5121712;28;20023;-73
2022/07/22 11:00:19;;;;;;;13.07;7.75;;;;;;;;;;5121523;28;20024;-73
2022/07/22 11:02:45;;;;;;;14.48;7.78;;;;;;;;;;5121416;28;20113;-73
2022/07/22 11:05:11;;;;;;;12.77;7.47;;;;;;;;;;5116393;28;20271;-72
2022/07/22 11:07:44;;;;;;;12.05;7.55;;;;;;;;;;5119661;28;20036;-72
2022/07/22 11:10:17;;;;;;;14.30;7.78;;;;;;;;;;5121098;28;20031;-73
2022/07/22 11:12:44;;;;;;;13.73;7.57;;;;;;;;;;5121091;28;20035;-73
2022/07/22 11:15:10;;;;;;;20.50;7.72;;;;;;;;;;5121342;28;20027;-73
2022/07/22 11:17:37;;;;;;;13.88;7.60;;;;;;;;;;5103098;28;20020;-73
2022/07/22 11:20:08;;;;;;;15.55;7.70;;;;;;;;;;5121074;28;20023;-73
2022/07/22 11:22:34;;;;;;;13.73;7.75;;;;;;;;;;5121288;28;20039;-73
2022/07/22 11:25:01;;;;;;;15.13;7.35;;;;;;;;;;5114146;28;20024;-73
2022/07/22 11:27:27;;;;;;;14.38;7.35;;;;;;;;;;5121217;28;20031;-72
2022/07/22 11:29:56;;;;;;;12.10;7.57;;;;;;;;;;5121569;28;20023;-72
2022/07/22 11:32:22;;;;;;;17.02;7.28;;;;;;;;;;5126091;28;20091;-73
2022/07/22 11:34:48;;;;;;;16.25;7.82;;;;;;;;;;5125027;28;20032;-76
2022/07/22 11:37:24;;;;;;;12.13;7.57;;;;;;;;;;5125486;28;20088;-73
2022/07/22 11:40:10;;;;;;;15.07;8.05;;;;;;;;;;5124872;28;20030;-73
2022/07/22 11:42:36;;;;;;;13.48;7.95;;;;;;;;;;5115163;28;20048;-73
2022/07/22 11:45:02;;;;;;;13.07;7.95;;;;;;;;;;5125078;28;20206;-73
2022/07/22 11:47:27;;;;;;;12.00;7.47;;;;;;;;;;5125009;28;20023;-73
2022/07/22 11:49:55;;;;;;;10.85;7.38;;;;;;;;;;5118281;28;20061;-72
2022/07/22 11:52:20;;;;;;;12.30;7.40;;;;;;;;;;5125326;28;20046;-72
2022/07/22 11:54:46;;;;;;;12.07;7.53;;;;;;;;;;5124687;28;20023;-72
2022/07/22 11:57:12;;;;;;;12.18;7.57;;;;;;;;;;5125113;28;20019;-72
2022/07/22 11:59:38;;;;;;;15.50;7.60;;;;;;;;;;5124785;28;20019;-73
2022/07/22 12:02:06;;;;;;;11.50;7.50;;;;;;;;;;5120940;28;20024;-75
2022/07/22 12:04:32;;;;;;;12.52;7.70;;;;;;;;;;5124787;28;20012;-72
2022/07/22 12:07:01;;;;;;;12.20;7.60;;;;;;;;;;5100095;28;20019;-72
2022/07/22 12:09:30;;;;;;;11.77;7.50;;;;;;;;;;5124469;28;20016;-73
2022/07/22 12:11:57;;;;;;;12.02;7.43;;;;;;;;;;5124757;28;20015;-72
2022/07/22 12:14:28;;;;;;;10.02;7.40;;;;;;;;;;5120426;28;20066;-73
2022/07/22 12:16:55;;;;;;;14.38;7.75;;;;;;;;;;5124737;28;20020;-73
2022/07/22 12:19:21;;;;;;;10.75;7.57;;;;;;;;;;5124253;28;20042;-72
2022/07/22 12:22:14;;;;;;;13.30;7.60;;;;;;;;;;5124463;28;20015;-71
2022/07/22 12:24:42;;;;;;;11.75;7.82;;;;;;;;;;5123362;28;20043;-72
2022/07/22 12:27:08;;;;;;;15.38;7.50;;;;;;;;;;5105857;28;20173;-72
2022/07/22 12:29:37;;;;;;;14.60;7.65;;;;;;;;;;5124224;28;20030;-75
2022/07/22 12:32:10;;;;;;;12.93;7.70;;;;;;;;;;5124414;28;20086;-81
2022/07/22 12:34:40;;;;;;;12.35;7.32;;;;;;;;;;5124055;28;20027;-75
2022/07/22 12:37:41;;;;;;;11.30;7.85;;;;;;;;;;5124197;28;20023;-76
2022/07/22 12:40:13;;;;;;;10.23;7.10;;;;;;;;;;5121480;28;20064;-75
2022/07/22 12:42:43;;;;;;;12.95;8.10;;;;;;;;;;5124287;28;20042;-75
2022/07/22 12:45:17;;;;;;;16.67;7.80;;;;;;;;;;5123936;28;20078;-73
2022/07/22 12:47:58;;;;;;;13.10;7.85;;;;;;;;;;5124527;28;20020;-74
2022/07/22 12:50:33;;;;;;;12.65;7.70;;;;;;;;;;5103261;28;20095;-74
2022/07/22 12:53:14;;;;;;;16.38;7.85;;;;;;;;;;5082037;28;20031;-74
2022/07/22 12:55:47;;;;;;;12.90;7.60;;;;;;;;;;5102804;28;20028;-74
2022/07/22 12:58:14;;;;;;;13.02;7.72;;;;;;;;;;5103589;28;20234;-78
2022/07/22 13:00:44;;;;;;;13.35;7.70;;;;;;;;;;5103298;28;20312;-74
2022/07/22 13:03:10;;;;;;;13.30;7.18;;;;;;;;;;5103481;28;20024;-74
2022/07/22 13:05:35;;;;;;;12.45;7.40;;;;;;;;;;5096418;28;20022;-74
2022/07/22 13:08:01;;;;;;;14.63;7.80;;;;;;;;;;5103493;28;20027;-74
2022/07/22 13:10:27;;;;;;;13.60;7.43;;;;;;;;;;5102830;28;20024;-74
2022/07/22 13:12:53;;;;;;;14.30;8.05;;;;;;;;;;5102910;28;20026;-74
2022/07/22 13:15:19;;;;;;;13.85;7.82;;;;;;;;;;5103234;28;20028;-75
2022/07/22 13:17:45;;;;;;;11.48;7.60;;;;;;;;;;5103077;28;20401;-82
2022/07/22 13:20:18;;;;;;;12.00;7.55;;;;;;;;;;5102811;28;20036;-74
2022/07/22 13:22:45;;;;;;;15.43;7.82;;;;;;;;;;5076497;28;20028;-76
2022/07/22 13:25:11;;;;;;;14.25;7.65;;;;;;;;;;5083097;28;20043;-79
2022/07/22 13:27:37;;;;;;;11.18;7.68;;;;;;;;;;5103297;28;20031;-74
2022/07/22 13:30:03;;;;;;;12.50;8.10;;;;;;;;;;5102516;28;20026;-75
2022/07/22 13:32:28;;;;;;;11.90;7.90;;;;;;;;;;5102921;28;20031;-74
2022/07/22 13:34:53;;;;;;;10.25;8.00;;;;;;;;;;5102726;28;20024;-74
2022/07/22 13:37:20;;;;;;;15.85;8.15;;;;;;;;;;5102698;28;20013;-73
2022/07/22 13:39:47;;;;;;;13.07;8.00;;;;;;;;;;5081134;28;20216;-74
2022/07/22 13:42:13;;;;;;;10.65;7.78;;;;;;;;;;5102875;28;20376;-75
2022/07/22 13:44:39;;;;;;;11.23;7.70;;;;;;;;;;5102252;28;20074;-74
2022/07/22 13:47:04;;;;;;;13.00;7.85;;;;;;;;;;5102430;28;20043;-71
2022/07/22 13:49:30;;;;;;;14.68;7.85;;;;;;;;;;5116308;28;20036;-74
2022/07/22 13:51:55;;;;;;;17.58;7.90;;;;;;;;;;5122791;28;20099;-71
2022/07/22 13:54:21;;;;;;;10.93;7.38;;;;;;;;;;5121920;28;20217;-74
2022/07/22 13:56:49;;;;;;;12.30;7.95;;;;;;;;;;5122606;28;20076;-72
2022/07/22 13:59:16;;;;;;;12.18;7.63;;;;;;;;;;5122472;28;20035;-74
2022/07/22 14:01:43;;;;;;;13.50;8.02;;;;;;;;;;5122835;28;20035;-73
2022/07/22 14:04:08;;;;;;;18.02;8.05;;;;;;;;;;5122376;28;20035;-74
2022/07/22 14:06:34;;;;;;;13.65;7.85;;;;;;;;;;5116570;28;20238;-74
2022/07/22 14:09:00;;;;;;;12.77;7.45;;;;;;;;;;5121945;28;20023;-74
2022/07/22 14:11:25;;;;;;;13.00;8.15;;;;;;;;;;5122818;28;20024;-74
2022/07/22 14:13:51;;;;;;;12.68;8.10;;;;;;;;;;5121301;28;20183;-76
2022/07/22 14:16:34;;;;;;;12.57;8.30;;;;;;;;;;5101306;28;20012;-73
2022/07/22 14:19:12;;;;;;;12.57;8.10;;;;;;;;;;5122682;28;20223;-73
2022/07/22 14:21:39;;;;;;;11.43;8.05;;;;;;;;;;5122187;28;20039;-74
2022/07/22 14:24:06;;;;;;;15.30;8.13;;;;;;;;;;5096782;28;20027;-73
2022/07/22 14:26:32;;;;;;;10.25;8.07;;;;;;;;;;5115493;28;20086;-74